createdAt,value
2018-09-05T00:00:23.341Z,19.51
2018-09-05T00:01:23.368Z,19.62
2018-09-05T00:02:23.395Z,19.54
2018-09-05T00:03:23.431Z,19.67
2018-09-05T00:04:23.456Z,19.55
2018-09-05T00:05:23.493Z,19.63
2018-09-05T00:06:23.520Z,19.66
2018-09-05T00:07:23.555Z,19.62
2018-09-05T00:08:23.584Z,19.63
2018-09-05T00:09:23.616Z,19.60
2018-09-05T00:10:23.644Z,19.67
2018-09-05T00:11:23.670Z,19.64
2018-09-05T00:12:23.701Z,19.66
2018-09-05T00:13:23.743Z,19.64
2018-09-05T00:14:23.819Z,19.69
2018-09-05T00:15:23.792Z,19.69
2018-09-05T00:16:23.824Z,19.63
2018-09-05T00:17:23.862Z,19.64
2018-09-05T00:18:23.887Z,19.66
2018-09-05T00:19:23.916Z,19.64
2018-09-05T00:20:23.950Z,19.64
2018-09-05T00:21:23.979Z,19.67
2018-09-05T00:22:24.013Z,19.70
2018-09-05T00:23:24.046Z,19.69
2018-09-05T00:24:24.075Z,19.70
2018-09-05T00:25:24.106Z,19.64
2018-09-05T00:26:24.135Z,19.73
2018-09-05T00:27:24.163Z,19.73
2018-09-05T00:28:24.195Z,19.70
2018-09-05T00:29:24.227Z,19.70
2018-09-05T00:30:24.256Z,19.70
2018-09-05T00:31:24.289Z,19.64
2018-09-05T00:32:24.327Z,19.69
2018-09-05T00:33:24.346Z,19.74
2018-09-05T00:34:24.375Z,19.71
2018-09-05T00:35:24.414Z,19.70
2018-09-05T00:36:24.484Z,19.69
2018-09-05T00:37:24.477Z,19.69
2018-09-05T00:38:24.503Z,19.69
2018-09-05T00:39:24.542Z,19.63
2018-09-05T00:40:24.564Z,19.71
2018-09-05T00:41:24.596Z,19.70
2018-09-05T00:42:24.625Z,19.69
2018-09-05T00:43:24.654Z,19.63
2018-09-05T00:44:24.682Z,19.69
2018-09-05T00:45:24.724Z,19.70
2018-09-05T00:46:24.744Z,19.66
2018-09-05T00:47:24.779Z,19.67
2018-09-05T00:48:24.808Z,19.64
2018-09-05T00:49:24.838Z,19.78
2018-09-05T00:50:24.873Z,19.70
2018-09-05T00:51:24.904Z,19.71
2018-09-05T00:52:24.934Z,19.64
2018-09-05T00:53:24.959Z,19.74
2018-09-05T00:54:24.988Z,19.74
2018-09-05T00:55:25.027Z,19.74
2018-09-05T00:56:25.059Z,19.70
2018-09-05T00:57:25.087Z,19.81
2018-09-05T00:58:25.124Z,19.74
2018-09-05T00:59:25.144Z,19.76
2018-09-05T01:00:25.176Z,19.78
2018-09-05T01:01:25.208Z,19.84
2018-09-05T01:02:25.239Z,19.71
2018-09-05T01:03:25.265Z,19.82
2018-09-05T01:04:25.302Z,19.74
2018-09-05T01:05:25.324Z,19.74
2018-09-05T01:06:25.382Z,19.76
2018-09-05T01:07:25.393Z,19.74
2018-09-05T01:08:25.423Z,19.70
2018-09-05T01:09:25.455Z,19.76
2018-09-05T01:10:25.481Z,19.74
2018-09-05T01:11:25.512Z,19.74
2018-09-05T01:12:25.545Z,19.79
2018-09-05T01:13:25.582Z,19.70
2018-09-05T01:14:25.634Z,19.71
2018-09-05T01:15:25.634Z,19.73
2018-09-05T01:16:25.666Z,19.79
2018-09-05T01:17:25.706Z,19.74
2018-09-05T01:18:25.742Z,19.74
2018-09-05T01:19:25.761Z,19.64
2018-09-05T01:20:25.790Z,19.67
2018-09-05T01:21:25.826Z,19.81
2018-09-05T01:22:25.853Z,19.73
2018-09-05T01:23:25.882Z,19.82
2018-09-05T01:24:25.975Z,19.84
2018-09-05T01:25:25.946Z,19.73
2018-09-05T01:26:25.975Z,19.73
2018-09-05T01:27:26.004Z,19.73
2018-09-05T01:28:26.035Z,19.74
2018-09-05T01:29:26.068Z,19.78
2018-09-05T01:30:26.093Z,19.78
2018-09-05T01:31:26.133Z,19.76
2018-09-05T01:32:26.154Z,19.73
2018-09-05T01:33:26.217Z,19.74
2018-09-05T01:34:26.218Z,19.76
2018-09-05T01:35:26.243Z,19.73
2018-09-05T01:36:26.282Z,19.76
2018-09-05T01:37:26.309Z,19.71
2018-09-05T01:38:26.342Z,19.79
2018-09-05T01:39:26.374Z,19.79
2018-09-05T01:40:26.402Z,19.78
2018-09-05T01:41:26.434Z,19.74
2018-09-05T01:42:26.463Z,19.78
2018-09-05T01:43:26.497Z,19.79
2018-09-05T01:44:26.526Z,19.78
2018-09-05T01:45:26.568Z,19.78
2018-09-05T01:46:26.590Z,19.81
2018-09-05T01:47:26.619Z,19.78
2018-09-05T01:48:26.660Z,19.81
2018-09-05T01:49:26.682Z,19.78
2018-09-05T01:50:26.712Z,19.76
2018-09-05T01:51:26.750Z,19.78
2018-09-05T01:52:26.776Z,19.78
2018-09-05T01:53:26.798Z,19.73
2018-09-05T01:54:26.830Z,19.74
2018-09-05T01:55:26.864Z,19.79
2018-09-05T01:56:26.896Z,19.74
2018-09-05T01:57:26.924Z,19.74
2018-09-05T01:58:26.956Z,19.74
2018-09-05T01:59:26.987Z,19.73
2018-09-05T02:00:27.019Z,19.74
2018-09-05T02:01:27.054Z,19.71
2018-09-05T02:02:27.076Z,19.78
2018-09-05T02:03:27.110Z,19.76
2018-09-05T02:04:27.139Z,19.79
2018-09-05T02:05:27.175Z,19.74
2018-09-05T02:06:27.209Z,19.74
2018-09-05T02:07:27.231Z,19.78
2018-09-05T02:08:27.277Z,19.70
2018-09-05T02:09:27.293Z,19.71
2018-09-05T02:10:27.325Z,19.66
2018-09-05T02:11:27.354Z,19.76
2018-09-05T02:12:27.390Z,19.71
2018-09-05T02:13:27.418Z,19.76
2018-09-05T02:14:27.451Z,19.73
2018-09-05T02:15:27.482Z,19.76
2018-09-05T02:16:27.509Z,19.73
2018-09-05T02:17:27.550Z,19.70
2018-09-05T02:18:27.573Z,19.66
2018-09-05T02:19:27.598Z,19.71
2018-09-05T02:20:27.643Z,19.66
2018-09-05T02:21:27.666Z,19.63
2018-09-05T02:22:27.699Z,19.69
2018-09-05T02:23:27.725Z,19.74
2018-09-05T02:24:27.756Z,19.69
2018-09-05T02:25:27.788Z,19.74
2018-09-05T02:26:27.817Z,19.71
2018-09-05T02:27:27.849Z,19.67
2018-09-05T02:28:27.877Z,19.69
2018-09-05T02:29:27.906Z,19.76
2018-09-05T02:30:27.938Z,19.71
2018-09-05T02:31:27.971Z,19.73
2018-09-05T02:32:28.012Z,19.69
2018-09-05T02:33:28.041Z,19.71
2018-09-05T02:34:28.065Z,19.71
2018-09-05T02:35:28.096Z,19.67
2018-09-05T02:36:28.126Z,19.66
2018-09-05T02:37:28.154Z,19.70
2018-09-05T02:38:28.186Z,19.71
2018-09-05T02:39:28.212Z,19.79
2018-09-05T02:40:28.270Z,19.63
2018-09-05T02:41:28.285Z,19.70
2018-09-05T02:42:28.310Z,19.71
2018-09-05T02:43:28.340Z,19.66
2018-09-05T02:44:28.372Z,19.71
2018-09-05T02:45:28.400Z,19.74
2018-09-05T02:46:28.430Z,19.71
2018-09-05T02:47:28.471Z,19.64
2018-09-05T02:48:28.503Z,19.64
2018-09-05T02:49:28.522Z,19.73
2018-09-05T02:50:28.561Z,19.64
2018-09-05T02:51:28.583Z,19.66
2018-09-05T02:52:28.611Z,19.70
2018-09-05T02:53:28.644Z,19.64
2018-09-05T02:54:28.672Z,19.67
2018-09-05T02:55:28.704Z,19.74
2018-09-05T02:56:28.736Z,19.64
2018-09-05T02:57:28.769Z,19.73
2018-09-05T02:58:28.800Z,19.62
2018-09-05T02:59:28.835Z,19.62
2018-09-05T03:00:28.860Z,19.74
2018-09-05T03:01:28.894Z,19.67
2018-09-05T03:02:28.925Z,19.64
2018-09-05T03:03:28.951Z,19.64
2018-09-05T03:04:28.980Z,19.70
2018-09-05T03:05:29.018Z,19.63
2018-09-05T03:06:29.046Z,19.67
2018-09-05T03:07:29.069Z,19.69
2018-09-05T03:08:29.104Z,19.70
2018-09-05T03:09:29.220Z,19.67
2018-09-05T03:10:29.192Z,19.64
2018-09-05T03:11:29.205Z,19.66
2018-09-05T03:12:29.233Z,19.64
2018-09-05T03:13:29.259Z,19.70
2018-09-05T03:14:29.288Z,19.66
2018-09-05T03:15:29.322Z,19.64
2018-09-05T03:16:29.352Z,19.63
2018-09-05T03:17:29.381Z,19.62
2018-09-05T03:18:29.409Z,19.56
2018-09-05T03:19:29.445Z,19.63
2018-09-05T03:20:29.467Z,19.67
2018-09-05T03:21:29.500Z,19.62
2018-09-05T03:22:29.533Z,19.64
2018-09-05T03:23:29.629Z,19.56
2018-09-05T03:24:29.597Z,19.62
2018-09-05T03:25:29.628Z,19.66
2018-09-05T03:26:29.657Z,19.54
2018-09-05T03:27:29.693Z,19.59
2018-09-05T03:28:29.722Z,19.62
2018-09-05T03:29:29.753Z,19.63
2018-09-05T03:30:29.780Z,19.64
2018-09-05T03:31:29.811Z,19.64
2018-09-05T03:32:29.967Z,19.64
2018-09-05T03:33:29.872Z,19.63
2018-09-05T03:34:29.900Z,19.66
2018-09-05T03:35:29.932Z,19.49
2018-09-05T03:36:29.964Z,19.66
2018-09-05T03:37:29.993Z,19.54
2018-09-05T03:38:30.027Z,19.52
2018-09-05T03:39:30.059Z,19.52
2018-09-05T03:40:30.088Z,19.62
2018-09-05T03:41:30.119Z,19.54
2018-09-05T03:42:30.154Z,19.52
2018-09-05T03:43:30.189Z,19.59
2018-09-05T03:44:30.224Z,19.64
2018-09-05T03:45:30.238Z,19.51
2018-09-05T03:46:30.266Z,19.67
2018-09-05T03:47:30.297Z,19.60
2018-09-05T03:48:30.332Z,19.51
2018-09-05T03:49:30.361Z,19.64
2018-09-05T03:50:30.390Z,19.66
2018-09-05T03:51:30.422Z,19.56
2018-09-05T03:52:30.454Z,19.54
2018-09-05T03:53:30.487Z,19.64
2018-09-05T03:54:30.514Z,19.63
2018-09-05T03:55:30.545Z,19.49
2018-09-05T03:56:30.579Z,19.51
2018-09-05T03:57:30.609Z,19.54
2018-09-05T03:58:30.638Z,19.54
2018-09-05T03:59:30.667Z,19.56
2018-09-05T04:00:30.695Z,19.54
2018-09-05T04:01:30.727Z,19.52
2018-09-05T04:02:30.756Z,19.55
2018-09-05T04:03:30.792Z,19.62
2018-09-05T04:04:30.826Z,19.60
2018-09-05T04:05:30.852Z,19.51
2018-09-05T04:06:30.885Z,19.63
2018-09-05T04:07:30.913Z,19.52
2018-09-05T04:08:30.960Z,19.55
2018-09-05T04:09:30.974Z,19.49
2018-09-05T04:10:31.024Z,19.49
2018-09-05T04:11:31.034Z,19.55
2018-09-05T04:12:31.071Z,19.63
2018-09-05T04:13:31.088Z,19.54
2018-09-05T04:14:31.129Z,19.55
2018-09-05T04:15:31.158Z,19.55
2018-09-05T04:16:31.184Z,19.54
2018-09-05T04:17:31.226Z,19.54
2018-09-05T04:18:31.251Z,19.54
2018-09-05T04:19:31.283Z,19.55
2018-09-05T04:20:31.313Z,19.49
2018-09-05T04:21:31.336Z,19.55
2018-09-05T04:22:31.374Z,19.60
2018-09-05T04:23:31.413Z,19.52
2018-09-05T04:24:31.429Z,19.52
2018-09-05T04:25:31.464Z,19.55
2018-09-05T04:26:31.493Z,19.52
2018-09-05T04:27:31.526Z,19.63
2018-09-05T04:28:31.581Z,19.64
2018-09-05T04:29:31.679Z,19.54
2018-09-05T04:30:31.614Z,19.55
2018-09-05T04:31:31.645Z,19.64
2018-09-05T04:32:31.685Z,19.54
2018-09-05T04:33:31.724Z,19.64
2018-09-05T04:34:31.747Z,19.60
2018-09-05T04:35:31.765Z,19.63
2018-09-05T04:36:31.820Z,19.55
2018-09-05T04:37:31.832Z,19.60
2018-09-05T04:38:31.861Z,19.66
2018-09-05T04:39:31.891Z,19.64
2018-09-05T04:40:31.920Z,19.64
2018-09-05T04:41:31.952Z,19.64
2018-09-05T04:42:31.985Z,19.60
2018-09-05T04:43:32.016Z,19.70
2018-09-05T04:44:32.044Z,19.69
2018-09-05T04:45:32.080Z,19.71
2018-09-05T04:46:32.113Z,19.71
2018-09-05T04:47:32.142Z,19.66
2018-09-05T04:48:32.169Z,19.76
2018-09-05T04:49:32.206Z,19.74
2018-09-05T04:50:32.228Z,19.69
2018-09-05T04:51:32.270Z,19.76
2018-09-05T04:52:32.328Z,19.71
2018-09-05T04:53:32.317Z,19.71
2018-09-05T04:54:32.347Z,19.71
2018-09-05T04:55:32.383Z,19.64
2018-09-05T04:56:32.413Z,19.66
2018-09-05T04:57:32.441Z,19.66
2018-09-05T04:58:32.544Z,19.71
2018-09-05T04:59:32.502Z,19.71
2018-09-05T05:00:32.537Z,19.64
2018-09-05T05:01:32.570Z,19.71
2018-09-05T05:02:32.595Z,19.71
2018-09-05T05:03:32.627Z,19.71
2018-09-05T05:04:32.682Z,19.64
2018-09-05T05:05:32.763Z,19.71
2018-09-05T05:06:32.717Z,19.64
2018-09-05T05:07:32.748Z,19.71
2018-09-05T05:08:32.779Z,19.70
2018-09-05T05:09:32.807Z,19.71
2018-09-05T05:10:32.841Z,19.71
2018-09-05T05:11:32.877Z,19.69
2018-09-05T05:12:32.922Z,19.70
2018-09-05T05:13:32.936Z,19.73
2018-09-05T05:14:32.963Z,19.70
2018-09-05T05:15:32.991Z,19.69
2018-09-05T05:16:33.027Z,19.67
2018-09-05T05:17:33.054Z,19.78
2018-09-05T05:18:33.088Z,19.69
2018-09-05T05:19:33.112Z,19.67
2018-09-05T05:20:33.147Z,19.70
2018-09-05T05:21:33.181Z,19.76
2018-09-05T05:22:33.208Z,19.71
2018-09-05T05:23:33.293Z,19.70
2018-09-05T05:24:33.272Z,19.71
2018-09-05T05:25:33.301Z,19.81
2018-09-05T05:26:33.329Z,19.81
2018-09-05T05:27:33.358Z,19.74
2018-09-05T05:28:33.394Z,19.73
2018-09-05T05:29:33.419Z,19.79
2018-09-05T05:30:33.461Z,19.82
2018-09-05T05:31:33.480Z,19.81
2018-09-05T05:32:33.555Z,19.84
2018-09-05T05:33:33.550Z,19.79
2018-09-05T05:34:33.572Z,19.82
2018-09-05T05:35:33.604Z,19.82
2018-09-05T05:36:33.642Z,19.81
2018-09-05T05:37:33.665Z,19.82
2018-09-05T05:38:33.698Z,19.85
2018-09-05T05:39:33.727Z,19.88
2018-09-05T05:40:33.756Z,19.88
2018-09-05T05:41:33.791Z,19.86
2018-09-05T05:42:33.824Z,19.89
2018-09-05T05:43:33.852Z,19.82
2018-09-05T05:44:33.929Z,19.85
2018-09-05T05:45:33.910Z,19.97
2018-09-05T05:46:33.975Z,19.96
2018-09-05T05:47:33.974Z,19.88
2018-09-05T05:48:34.003Z,19.97
2018-09-05T05:49:34.041Z,19.89
2018-09-05T05:50:34.069Z,20.07
2018-09-05T05:51:34.099Z,19.97
2018-09-05T05:52:34.127Z,20.09
2018-09-05T05:53:34.160Z,20.04
2018-09-05T05:54:34.191Z,20.03
2018-09-05T05:55:34.221Z,20.09
2018-09-05T05:56:34.252Z,20.09
2018-09-05T05:57:34.284Z,20.17
2018-09-05T05:58:34.316Z,20.10
2018-09-05T05:59:34.347Z,20.19
2018-09-05T06:00:34.375Z,20.11
2018-09-05T06:01:34.411Z,20.17
2018-09-05T06:02:34.442Z,20.22
2018-09-05T06:03:34.470Z,20.22
2018-09-05T06:04:34.497Z,20.11
2018-09-05T06:05:34.531Z,20.28
2018-09-05T06:06:34.561Z,20.17
2018-09-05T06:07:34.588Z,20.25
2018-09-05T06:08:34.617Z,20.22
2018-09-05T06:09:34.654Z,20.25
2018-09-05T06:10:34.683Z,20.26
2018-09-05T06:11:34.717Z,20.26
2018-09-05T06:12:34.746Z,20.28
2018-09-05T06:13:34.775Z,20.28
2018-09-05T06:14:34.810Z,20.39
2018-09-05T06:15:34.883Z,20.40
2018-09-05T06:16:34.871Z,20.37
2018-09-05T06:17:34.962Z,20.43
2018-09-05T06:18:34.929Z,20.39
2018-09-05T06:19:34.958Z,20.41
2018-09-05T06:20:34.993Z,20.41
2018-09-05T06:21:35.026Z,20.43
2018-09-05T06:22:35.063Z,20.44
2018-09-05T06:23:35.087Z,20.50
2018-09-05T06:24:35.117Z,20.53
2018-09-05T06:25:35.150Z,20.48
2018-09-05T06:26:35.183Z,20.48
2018-09-05T06:27:35.271Z,20.56
2018-09-05T06:28:35.242Z,20.57
2018-09-05T06:29:35.278Z,20.56
2018-09-05T06:30:35.411Z,20.62
2018-09-05T06:31:35.337Z,20.62
2018-09-05T06:32:35.379Z,20.71
2018-09-05T06:33:35.398Z,20.60
2018-09-05T06:34:35.430Z,20.66
2018-09-05T06:35:35.469Z,20.60
2018-09-05T06:36:35.493Z,20.69
2018-09-05T06:37:35.519Z,20.72
2018-09-05T06:38:35.555Z,20.72
2018-09-05T06:39:35.586Z,20.77
2018-09-05T06:40:35.615Z,20.77
2018-09-05T06:41:35.649Z,20.92
2018-09-05T06:42:35.676Z,20.90
2018-09-05T06:43:35.711Z,20.84
2018-09-05T06:44:35.743Z,20.95
2018-09-05T06:45:35.781Z,21.03
2018-09-05T06:46:35.804Z,21.02
2018-09-05T06:47:35.832Z,21.14
2018-09-05T06:48:35.864Z,21.20
2018-09-05T06:49:35.898Z,21.17
2018-09-05T06:50:35.928Z,21.26
2018-09-05T06:51:35.957Z,21.36
2018-09-05T06:52:35.991Z,21.43
2018-09-05T06:53:36.022Z,21.37
2018-09-05T06:54:36.052Z,21.40
2018-09-05T06:55:36.085Z,21.54
2018-09-05T06:56:36.118Z,21.63
2018-09-05T06:57:36.150Z,21.61
2018-09-05T06:58:36.182Z,21.65
2018-09-05T06:59:36.213Z,21.72
2018-09-05T07:00:36.246Z,21.74
2018-09-05T07:01:36.281Z,21.81
2018-09-05T07:02:36.304Z,21.82
2018-09-05T07:03:36.439Z,21.98
2018-09-05T07:04:36.372Z,21.90
2018-09-05T07:05:36.405Z,22.04
2018-09-05T07:06:36.464Z,22.01
2018-09-05T07:07:36.464Z,22.14
2018-09-05T07:08:36.499Z,22.11
2018-09-05T07:09:36.535Z,22.17
2018-09-05T07:10:36.563Z,22.22
2018-09-05T07:11:36.595Z,22.33
2018-09-05T07:12:36.634Z,22.30
2018-09-05T07:13:36.665Z,22.36
2018-09-05T07:14:36.769Z,22.35
2018-09-05T07:15:36.722Z,22.43
2018-09-05T07:16:36.753Z,22.50
2018-09-05T07:17:36.865Z,22.53
2018-09-05T07:18:36.820Z,22.47
2018-09-05T07:19:36.852Z,22.60
2018-09-05T07:20:36.881Z,22.59
2018-09-05T07:21:36.998Z,22.66
2018-09-05T07:22:36.949Z,22.68
2018-09-05T07:23:36.978Z,22.65
2018-09-05T07:24:37.019Z,22.69
2018-09-05T07:25:37.045Z,22.75
2018-09-05T07:26:37.077Z,22.65
2018-09-05T07:27:37.145Z,22.66
2018-09-05T07:28:37.146Z,22.68
2018-09-05T07:29:37.175Z,22.83
2018-09-05T07:30:37.312Z,22.78
2018-09-05T07:31:37.247Z,22.80
2018-09-05T07:32:37.274Z,22.83
2018-09-05T07:33:37.312Z,22.85
2018-09-05T07:34:37.335Z,22.95
2018-09-05T07:35:37.419Z,22.93
2018-09-05T07:36:37.402Z,22.85
2018-09-05T07:37:37.434Z,22.90
2018-09-05T07:38:37.466Z,22.88
2018-09-05T07:39:37.501Z,22.93
2018-09-05T07:40:37.539Z,22.98
2018-09-05T07:41:37.561Z,23.05
2018-09-05T07:42:37.600Z,23.02
2018-09-05T07:43:37.649Z,23.05
2018-09-05T07:44:37.669Z,23.09
2018-09-05T07:45:37.698Z,23.10
2018-09-05T07:46:37.736Z,23.10
2018-09-05T07:47:37.762Z,23.07
2018-09-05T07:48:37.794Z,23.20
2018-09-05T07:49:37.829Z,23.20
2018-09-05T07:50:37.887Z,23.24
2018-09-05T07:51:37.893Z,23.24
2018-09-05T07:52:37.924Z,23.27
2018-09-05T07:53:37.965Z,23.25
2018-09-05T07:54:37.992Z,23.37
2018-09-05T07:55:38.028Z,23.37
2018-09-05T07:56:38.060Z,23.46
2018-09-05T07:57:38.091Z,23.41
2018-09-05T07:58:38.123Z,23.48
2018-09-05T07:59:38.155Z,23.55
2018-09-05T08:00:38.190Z,23.46
2018-09-05T08:01:38.222Z,23.53
2018-09-05T08:02:38.251Z,23.55
2018-09-05T08:03:38.289Z,23.59
2018-09-05T08:04:38.318Z,23.58
2018-09-05T08:05:38.366Z,23.65
2018-09-05T08:06:38.393Z,23.68
2018-09-05T08:07:38.420Z,23.70
2018-09-05T08:08:38.454Z,23.71
2018-09-05T08:09:38.489Z,23.76
2018-09-05T08:10:38.518Z,23.70
2018-09-05T08:11:38.621Z,23.76
2018-09-05T08:12:38.584Z,23.83
2018-09-05T08:13:38.620Z,23.83
2018-09-05T08:14:38.652Z,23.84
2018-09-05T08:15:38.701Z,23.84
2018-09-05T08:16:38.716Z,23.84
2018-09-05T08:17:38.755Z,23.88
2018-09-05T08:18:38.786Z,23.92
2018-09-05T08:19:38.818Z,23.95
2018-09-05T08:20:38.851Z,24.07
2018-09-05T08:21:38.882Z,24.11
2018-09-05T08:22:38.915Z,24.25
2018-09-05T08:23:38.950Z,24.23
2018-09-05T08:24:39.045Z,24.20
2018-09-05T08:25:39.020Z,24.33
2018-09-05T08:26:39.049Z,24.32
2018-09-05T08:27:39.089Z,24.39
2018-09-05T08:28:39.117Z,24.39
2018-09-05T08:29:39.153Z,24.65
2018-09-05T08:30:39.188Z,24.62
2018-09-05T08:31:39.225Z,24.70
2018-09-05T08:32:39.255Z,24.58
2018-09-05T08:33:39.294Z,24.58
2018-09-05T08:34:39.394Z,24.66
2018-09-05T08:35:39.624Z,24.73
2018-09-05T08:36:39.582Z,24.69
2018-09-05T08:37:39.542Z,24.86
2018-09-05T08:38:39.467Z,24.77
2018-09-05T08:39:39.488Z,24.83
2018-09-05T08:40:39.523Z,24.88
2018-09-05T08:41:39.574Z,24.81
2018-09-05T08:42:39.597Z,24.89
2018-09-05T08:43:39.733Z,24.93
2018-09-05T08:44:39.779Z,24.83
2018-09-05T08:45:39.982Z,24.91
2018-09-05T08:46:39.735Z,24.95
2018-09-05T08:47:39.807Z,24.95
2018-09-05T08:48:39.825Z,24.98
2018-09-05T08:49:39.832Z,25.00
2018-09-05T08:50:39.868Z,25.01
2018-09-05T08:51:39.908Z,25.11
2018-09-05T08:52:39.946Z,25.20
2018-09-05T08:53:39.966Z,25.15
2018-09-05T08:54:40.001Z,25.26
2018-09-05T08:55:40.036Z,25.19
2018-09-05T08:56:40.068Z,25.28
2018-09-05T08:57:40.098Z,25.29
2018-09-05T08:58:40.153Z,25.29
2018-09-05T08:59:40.188Z,25.44
2018-09-05T09:00:40.239Z,25.56
2018-09-05T09:01:40.239Z,25.77
2018-09-05T09:02:40.278Z,26.02
2018-09-05T09:03:40.306Z,26.16
2018-09-05T09:04:40.368Z,26.20
2018-09-05T09:05:40.378Z,26.22
2018-09-05T09:06:40.416Z,26.52
2018-09-05T09:07:40.441Z,26.57
2018-09-05T09:08:40.495Z,26.59
2018-09-05T09:09:40.514Z,26.63
2018-09-05T09:10:40.552Z,26.71
2018-09-05T09:11:40.621Z,26.90
2018-09-05T09:12:40.616Z,27.22
2018-09-05T09:13:40.652Z,27.41
2018-09-05T09:14:40.731Z,27.37
2018-09-05T09:15:40.725Z,27.64
2018-09-05T09:16:40.760Z,27.83
2018-09-05T09:17:40.795Z,27.82
2018-09-05T09:18:40.827Z,27.95
2018-09-05T09:19:40.866Z,27.92
2018-09-05T09:20:40.899Z,27.85
2018-09-05T09:21:40.941Z,27.83
2018-09-05T09:22:40.976Z,28.16
2018-09-05T09:23:41.008Z,28.16
2018-09-05T09:24:41.040Z,28.09
2018-09-05T09:25:41.078Z,28.05
2018-09-05T09:26:41.115Z,28.09
2018-09-05T09:27:41.185Z,28.16
2018-09-05T09:28:41.191Z,28.14
2018-09-05T09:29:41.223Z,28.36
2018-09-05T09:30:41.255Z,28.24
2018-09-05T09:31:41.300Z,28.29
2018-09-05T09:32:41.332Z,28.24
2018-09-05T09:33:41.367Z,28.23
2018-09-05T09:34:41.399Z,28.14
2018-09-05T09:35:41.438Z,28.11
2018-09-05T09:36:41.476Z,28.02
2018-09-05T09:37:41.512Z,28.04
2018-09-05T09:38:41.544Z,28.05
2018-09-05T09:39:41.586Z,27.93
2018-09-05T09:40:41.621Z,27.95
2018-09-05T09:41:41.656Z,27.99
2018-09-05T09:42:41.701Z,27.95
2018-09-05T09:43:41.733Z,27.92
2018-09-05T09:44:41.766Z,27.77
2018-09-05T09:45:41.798Z,27.83
2018-09-05T09:46:41.875Z,27.79
2018-09-05T09:47:41.874Z,27.82
2018-09-05T09:48:41.908Z,27.85
2018-09-05T09:49:41.946Z,27.79
2018-09-05T09:50:41.988Z,27.74
2018-09-05T09:51:42.020Z,27.80
2018-09-05T09:52:42.055Z,27.70
2018-09-05T09:53:42.085Z,27.75
2018-09-05T09:54:42.124Z,27.64
2018-09-05T09:55:42.162Z,27.64
2018-09-05T09:56:42.232Z,27.58
2018-09-05T09:57:42.235Z,27.64
2018-09-05T09:58:42.278Z,27.55
2018-09-05T09:59:42.305Z,27.52
2018-09-05T10:00:42.350Z,27.61
2018-09-05T10:01:42.379Z,27.55
2018-09-05T10:02:42.411Z,27.51
2018-09-05T10:03:42.678Z,27.54
2018-09-05T10:04:42.544Z,27.55
2018-09-05T10:05:42.528Z,27.48
2018-09-05T10:06:42.616Z,27.45
2018-09-05T10:07:42.595Z,27.46
2018-09-05T10:08:42.630Z,27.42
2018-09-05T10:09:42.689Z,27.41
2018-09-05T10:10:42.739Z,27.42
2018-09-05T10:11:42.739Z,27.45
2018-09-05T10:12:42.778Z,27.46
2018-09-05T10:13:42.814Z,27.48
2018-09-05T10:14:42.860Z,27.49
2018-09-05T10:15:42.887Z,27.49
2018-09-05T10:16:42.937Z,27.54
2018-09-05T10:17:42.956Z,27.58
2018-09-05T10:18:42.993Z,27.60
2018-09-05T10:19:43.024Z,27.62
2018-09-05T10:20:43.059Z,27.70
2018-09-05T10:21:43.111Z,27.70
2018-09-05T10:22:43.211Z,27.70
2018-09-05T10:23:43.176Z,27.70
2018-09-05T10:24:43.206Z,27.80
2018-09-05T10:25:43.244Z,27.87
2018-09-05T10:26:43.283Z,27.95
2018-09-05T10:27:43.307Z,27.97
2018-09-05T10:28:43.354Z,28.05
2018-09-05T10:29:43.393Z,28.12
2018-09-05T10:30:43.430Z,28.16
2018-09-05T10:31:43.516Z,28.27
2018-09-05T10:32:43.497Z,28.29
2018-09-05T10:33:43.537Z,28.30
2018-09-05T10:34:43.570Z,28.38
2018-09-05T10:35:43.604Z,28.39
2018-09-05T10:36:43.639Z,28.53
2018-09-05T10:37:43.678Z,28.64
2018-09-05T10:38:43.713Z,28.72
2018-09-05T10:39:43.745Z,28.69
2018-09-05T10:40:43.787Z,28.82
2018-09-05T10:41:43.822Z,28.88
2018-09-05T10:42:43.859Z,28.98
2018-09-05T10:43:43.893Z,29.10
2018-09-05T10:44:43.935Z,29.23
2018-09-05T10:45:43.963Z,29.26
2018-09-05T10:46:44.002Z,29.44
2018-09-05T10:47:44.041Z,29.57
2018-09-05T10:48:44.079Z,29.55
2018-09-05T10:49:44.121Z,29.58
2018-09-05T10:50:44.147Z,29.69
2018-09-05T10:51:44.241Z,29.92
2018-09-05T10:52:44.224Z,29.92
2018-09-05T10:53:44.255Z,29.88
2018-09-05T10:54:44.296Z,29.90
2018-09-05T10:55:44.334Z,29.97
2018-09-05T10:56:44.380Z,30.00
2018-09-05T10:57:44.417Z,29.97
2018-09-05T10:58:44.446Z,30.02
2018-09-05T10:59:44.481Z,30.21
2018-09-05T11:00:44.515Z,30.28
2018-09-05T11:01:44.550Z,30.48
2018-09-05T11:02:44.593Z,30.59
2018-09-05T11:03:44.630Z,30.91
2018-09-05T11:04:44.668Z,31.00
2018-09-05T11:05:44.706Z,31.02
2018-09-05T11:06:44.741Z,31.36
2018-09-05T11:07:44.780Z,31.37
2018-09-05T11:08:44.817Z,31.31
2018-09-05T11:09:44.856Z,31.46
2018-09-05T11:10:44.916Z,31.51
2018-09-05T11:11:44.929Z,31.46
2018-09-05T11:12:44.967Z,31.55
2018-09-05T11:13:45.006Z,31.46
2018-09-05T11:14:45.054Z,31.51
2018-09-05T11:15:45.082Z,31.49
2018-09-05T11:16:45.124Z,31.52
2018-09-05T11:17:45.159Z,31.40
2018-09-05T11:18:45.197Z,31.56
2018-09-05T11:19:45.232Z,31.51
2018-09-05T11:20:45.271Z,31.53
2018-09-05T11:21:45.312Z,31.63
2018-09-05T11:22:45.347Z,31.58
2018-09-05T11:23:45.391Z,31.58
2018-09-05T11:24:45.427Z,31.70
2018-09-05T11:25:45.466Z,31.74
2018-09-05T11:26:45.500Z,31.78
2018-09-05T11:27:45.644Z,31.82
2018-09-05T11:28:45.587Z,31.91
2018-09-05T11:29:45.615Z,31.96
2018-09-05T11:30:45.657Z,31.90
2018-09-05T11:31:45.690Z,31.89
2018-09-05T11:32:45.731Z,31.91
2018-09-05T11:33:45.780Z,31.90
2018-09-05T11:34:45.812Z,31.94
2018-09-05T11:35:45.851Z,31.90
2018-09-05T11:36:45.975Z,31.94
2018-09-05T11:37:45.931Z,31.87
2018-09-05T11:38:45.962Z,31.82
2018-09-05T11:39:46.001Z,31.77
2018-09-05T11:40:46.052Z,31.71
2018-09-05T11:41:46.097Z,31.73
2018-09-05T11:42:46.119Z,31.74
2018-09-05T11:43:46.161Z,31.71
2018-09-05T11:44:46.203Z,31.71
2018-09-05T11:45:46.238Z,31.81
2018-09-05T11:46:46.286Z,31.73
2018-09-05T11:47:46.312Z,31.87
2018-09-05T11:48:46.351Z,31.80
2018-09-05T11:49:46.391Z,31.77
2018-09-05T11:50:46.427Z,31.73
2018-09-05T11:51:46.471Z,31.74
2018-09-05T11:52:46.514Z,31.73
2018-09-05T11:53:46.547Z,31.80
2018-09-05T11:54:46.591Z,31.82
2018-09-05T11:55:46.629Z,31.97
2018-09-05T11:56:46.673Z,31.87
2018-09-05T11:57:46.701Z,31.91
2018-09-05T11:58:46.741Z,31.94
2018-09-05T11:59:46.796Z,31.98
2018-09-05T12:00:46.817Z,31.94
2018-09-05T12:01:46.855Z,31.90
2018-09-05T12:02:46.901Z,32.01
2018-09-05T12:03:46.930Z,32.05
2018-09-05T12:04:46.999Z,32.08
2018-09-05T12:05:47.017Z,32.06
2018-09-05T12:06:47.052Z,32.15
2018-09-05T12:07:47.087Z,32.19
2018-09-05T12:08:47.125Z,32.19
2018-09-05T12:09:47.169Z,32.20
2018-09-05T12:10:47.208Z,32.15
2018-09-05T12:11:47.319Z,32.20
2018-09-05T12:12:47.276Z,32.23
2018-09-05T12:13:47.319Z,32.19
2018-09-05T12:14:47.360Z,32.20
2018-09-05T12:15:47.402Z,32.18
2018-09-05T12:16:47.437Z,32.19
2018-09-05T12:17:47.475Z,32.15
2018-09-05T12:18:47.527Z,32.12
2018-09-05T12:19:47.562Z,32.13
2018-09-05T12:20:47.590Z,32.12
2018-09-05T12:21:47.649Z,32.05
2018-09-05T12:22:47.671Z,32.05
2018-09-05T12:23:47.712Z,32.00
2018-09-05T12:24:47.750Z,31.94
2018-09-05T12:25:47.788Z,31.91
2018-09-05T12:26:47.830Z,31.80
2018-09-05T12:27:47.862Z,31.78
2018-09-05T12:28:47.902Z,31.73
2018-09-05T12:29:47.949Z,31.71
2018-09-05T12:30:47.979Z,31.73
2018-09-05T12:31:48.018Z,31.68
2018-09-05T12:32:48.064Z,31.75
2018-09-05T12:33:48.100Z,31.80
2018-09-05T12:34:48.138Z,31.71
2018-09-05T12:35:48.176Z,31.74
2018-09-05T12:36:48.215Z,31.71
2018-09-05T12:37:48.253Z,31.71
2018-09-05T12:38:48.296Z,31.73
2018-09-05T12:39:48.331Z,31.71
2018-09-05T12:40:48.368Z,31.70
2018-09-05T12:41:48.407Z,31.73
2018-09-05T12:42:48.445Z,31.73
2018-09-05T12:43:48.481Z,31.68
2018-09-05T12:44:48.653Z,31.68
2018-09-05T12:45:48.567Z,31.59
2018-09-05T12:46:48.599Z,31.73
2018-09-05T12:47:48.634Z,31.78
2018-09-05T12:48:48.676Z,31.89
2018-09-05T12:49:48.728Z,31.93
2018-09-05T12:50:48.753Z,31.96
2018-09-05T12:51:48.792Z,32.01
2018-09-05T12:52:48.830Z,32.09